Time;durP1;ratioP1;P1;durP2;ratioP2;P2;SDS_P1;SDS_P2;PMS_P1;PMS_P2;Temp;Humidity;BMP_temperature;BMP_pressure;BME280_temperature;BME280_humidity;BME280_pressure;Samples;Min_cycle;Max_cycle;Signal;HPM_P1;HPM_P2
2023/11/14 00:04:56;;;;;;;;;;;;;;;20.13;42.20;94807.88;10466468;28;2564;-48
2023/11/14 00:09:57;;;;;;;;;;;;;;;20.10;42.35;94805.84;10471845;28;2564;-51
2023/11/14 00:14:57;;;;;;;;;;;;;;;20.09;42.44;94811.41;10471504;28;2633;-51
2023/11/14 00:19:57;;;;;;;;;;;;;;;20.07;42.30;94869.56;10477756;28;2548;-53
2023/11/14 00:24:57;;;;;;;;;;;;;;;20.05;42.24;94869.06;10475710;28;2611;-50
2023/11/14 00:29:58;;;;;;;;;;;;;;;20.03;42.62;94871.22;10474866;28;2584;-50
2023/11/14 00:34:58;;;;;;;;;;;;;;;20.02;42.77;94879.41;10462326;28;2632;-51
2023/11/14 00:39:59;;;;;;;;;;;;;;;19.99;42.72;94882.63;10481369;28;2618;-50
2023/11/14 00:44:59;;;;;;;;;;;;;;;19.96;42.75;94862.94;10470288;28;4709;-50
2023/11/14 00:50:01;;;;;;;;;;;;;;;19.95;42.96;94861.38;10473954;28;2648;-52
2023/11/14 00:55:01;;;;;;;;;;;;;;;19.93;42.84;94871.41;10467083;28;2639;-53
2023/11/14 01:00:02;;;;;;;;;;;;;;;19.91;42.90;94901.69;10460316;28;2616;-51
2023/11/14 01:05:02;;;;;;;;;;;;;;;19.90;42.71;94923.81;10468662;28;2677;-51
2023/11/14 01:10:03;;;;;;;;;;;;;;;19.88;42.71;94918.84;10471856;28;2625;-49
2023/11/14 01:15:04;;;;;;;;;;;;;;;19.88;42.61;94916.22;10471273;28;2579;-50
2023/11/14 01:20:05;;;;;;;;;;;;;;;19.86;42.74;94938.59;10456790;28;2601;-50
2023/11/14 01:25:07;;;;;;;;;;;;;;;19.85;43.06;94921.25;10474731;28;2687;-53
2023/11/14 01:30:07;;;;;;;;;;;;;;;19.84;42.95;94957.31;10480708;28;2711;-51
2023/11/14 01:35:09;;;;;;;;;;;;;;;19.82;43.12;94958.66;10471878;28;2561;-49
2023/11/14 01:40:09;;;;;;;;;;;;;;;19.81;43.37;94978.13;10486814;28;2596;-47
2023/11/14 01:45:09;;;;;;;;;;;;;;;19.79;43.21;94985.50;10481212;28;4632;-53
2023/11/14 01:50:09;;;;;;;;;;;;;;;19.77;42.96;94998.97;10482490;28;2539;-49
2023/11/14 01:55:10;;;;;;;;;;;;;;;19.76;43.15;95018.44;10480097;28;2683;-49
2023/11/14 02:00:11;;;;;;;;;;;;;;;19.74;43.24;94989.00;10482552;28;2679;-50
2023/11/14 02:05:11;;;;;;;;;;;;;;;19.73;43.11;94986.66;10484604;28;2535;-49
2023/11/14 02:10:11;;;;;;;;;;;;;;;19.72;43.15;94991.13;10458844;28;2655;-49
2023/11/14 02:15:12;;;;;;;;;;;;;;;19.70;43.05;94980.13;10461387;28;2556;-52
2023/11/14 02:20:12;;;;;;;;;;;;;;;19.68;43.02;94981.50;10477306;28;2680;-51
2023/11/14 02:25:12;;;;;;;;;;;;;;;19.67;43.20;94982.53;10484867;28;2648;-53
2023/11/14 02:30:12;;;;;;;;;;;;;;;19.64;43.63;95004.16;10478472;28;2575;-51
2023/11/14 02:35:13;;;;;;;;;;;;;;;19.64;43.87;95007.56;10462130;28;2616;-47
2023/11/14 02:40:13;;;;;;;;;;;;;;;19.64;43.61;95017.31;10463808;28;2709;-50
2023/11/14 02:45:13;;;;;;;;;;;;;;;19.61;43.85;95026.53;10480013;28;4753;-51
2023/11/14 02:50:29;;;;;;;;;;;;;;;19.60;43.90;95026.84;10475371;28;2608;-54
2023/11/14 02:55:29;;;;;;;;;;;;;;;19.59;43.75;95033.94;10477142;28;2623;-51
2023/11/14 03:00:29;;;;;;;;;;;;;;;19.58;43.56;95045.50;10472326;28;2599;-53
2023/11/14 03:05:30;;;;;;;;;;;;;;;19.57;43.78;95066.81;10481313;28;2576;-53
2023/11/14 03:10:33;;;;;;;;;;;;;;;19.55;43.64;95064.47;10476068;28;2720;-50
2023/11/14 03:15:34;;;;;;;;;;;;;;;19.55;43.63;95058.44;10479670;28;2552;-53
2023/11/14 03:20:34;;;;;;;;;;;;;;;19.54;43.43;95051.63;10471199;28;2683;-51
2023/11/14 03:25:34;;;;;;;;;;;;;;;19.52;44.03;95053.72;10464776;28;2760;-50
2023/11/14 03:30:34;;;;;;;;;;;;;;;19.50;43.87;95056.66;10462727;28;2640;-47
2023/11/14 03:35:37;;;;;;;;;;;;;;;19.49;43.73;95053.22;10462880;28;2589;-50
2023/11/14 03:40:37;;;;;;;;;;;;;;;19.49;43.83;95055.84;10475837;28;2671;-49
2023/11/14 03:45:38;;;;;;;;;;;;;;;19.47;43.62;95052.72;10480078;28;2532;-53
2023/11/14 03:50:38;;;;;;;;;;;;;;;19.47;43.58;95068.50;10475746;28;2591;-47
2023/11/14 03:55:38;;;;;;;;;;;;;;;19.44;43.90;95069.09;10457624;28;2640;-52
2023/11/14 04:00:39;;;;;;;;;;;;;;;19.42;43.86;95050.19;10477937;28;2587;-52
2023/11/14 04:05:39;;;;;;;;;;;;;;;19.43;43.63;95054.38;10477243;28;2636;-53
2023/11/14 04:10:39;;;;;;;;;;;;;;;19.42;43.87;95070.41;10480005;28;2862;-52
2023/11/14 04:15:39;;;;;;;;;;;;;;;19.41;43.66;95069.63;10468963;28;2569;-48
2023/11/14 04:20:40;;;;;;;;;;;;;;;19.40;43.35;95062.81;10476641;28;2583;-52
2023/11/14 04:25:40;;;;;;;;;;;;;;;19.39;43.74;95061.25;10477427;28;2628;-50
2023/11/14 04:30:40;;;;;;;;;;;;;;;19.39;43.59;95065.75;10483228;28;2728;-50
2023/11/14 04:35:41;;;;;;;;;;;;;;;19.37;43.59;95078.38;10476405;28;2619;-49
2023/11/14 04:40:41;;;;;;;;;;;;;;;19.36;44.14;95082.84;10484361;28;2645;-49
2023/11/14 04:45:41;;;;;;;;;;;;;;;19.34;43.90;95079.72;10473270;28;4940;-54
2023/11/14 04:50:41;;;;;;;;;;;;;;;19.36;43.64;95093.38;10470361;28;2608;-51
2023/11/14 04:55:42;;;;;;;;;;;;;;;19.35;43.85;95118.06;10455506;28;2628;-51
2023/11/14 05:00:42;;;;;;;;;;;;;;;19.32;43.87;95137.00;10477245;28;2609;-51
2023/11/14 05:05:42;;;;;;;;;;;;;;;19.32;44.28;95118.59;10472015;28;2678;-50
2023/11/14 05:10:43;;;;;;;;;;;;;;;19.35;44.26;95165.38;10469810;28;2596;-51
2023/11/14 05:15:43;;;;;;;;;;;;;;;19.40;44.00;95160.06;10455616;28;2659;-54
2023/11/14 05:20:43;;;;;;;;;;;;;;;19.45;43.84;95138.97;10476719;28;2640;-50
2023/11/14 05:25:43;;;;;;;;;;;;;;;19.53;44.04;95160.44;10464708;28;2705;-50
2023/11/14 05:30:44;;;;;;;;;;;;;;;19.61;43.93;95157.19;10462816;28;2557;-47
2023/11/14 05:35:44;;;;;;;;;;;;;;;19.68;43.80;95168.19;10466125;28;2579;-52
2023/11/14 05:40:44;;;;;;;;;;;;;;;19.73;43.66;95150.47;10466708;28;2561;-52
2023/11/14 05:45:45;;;;;;;;;;;;;;;19.80;43.64;95147.50;10473654;28;4676;-52
2023/11/14 05:50:46;;;;;;;;;;;;;;;19.85;43.55;95136.91;10479722;28;2553;-52
2023/11/14 05:55:46;;;;;;;;;;;;;;;19.88;43.50;95149.50;10474546;28;2598;-51
2023/11/14 06:00:47;;;;;;;;;;;;;;;19.89;43.56;95172.09;10475669;28;2625;-49
2023/11/14 06:05:47;;;;;;;;;;;;;;;19.92;43.57;95169.72;10469442;28;2757;-51
2023/11/14 06:10:47;;;;;;;;;;;;;;;19.99;43.64;95172.75;10472691;28;2528;-46
2023/11/14 06:15:48;;;;;;;;;;;;;;;20.05;43.91;95184.00;10474529;28;2585;-48
2023/11/14 06:20:48;;;;;;;;;;;;;;;20.10;43.70;95184.72;10473063;28;2576;-49
2023/11/14 06:25:48;;;;;;;;;;;;;;;20.13;43.76;95207.06;10475202;28;2687;-51
2023/11/14 06:30:48;;;;;;;;;;;;;;;20.17;44.01;95182.50;10475322;28;2635;-47
2023/11/14 06:35:49;;;;;;;;;;;;;;;20.20;43.75;95205.66;10478720;28;2619;-50
2023/11/14 06:40:49;;;;;;;;;;;;;;;20.25;44.25;95225.88;10454499;28;4668;-50
2023/11/14 06:45:49;;;;;;;;;;;;;;;20.27;43.87;95229.00;10488973;28;2659;-46
2023/11/14 06:50:50;;;;;;;;;;;;;;;20.30;43.42;95238.19;10476137;28;2623;-47
2023/11/14 06:55:50;;;;;;;;;;;;;;;20.32;43.86;95241.31;10489294;28;2660;-46
2023/11/14 07:00:50;;;;;;;;;;;;;;;20.32;43.76;95236.81;10462911;28;2580;-46
2023/11/14 07:05:51;;;;;;;;;;;;;;;20.32;44.19;95265.75;10480406;28;2643;-46
2023/11/14 07:10:51;;;;;;;;;;;;;;;20.32;43.76;95272.91;10461383;28;2659;-47
2023/11/14 07:15:51;;;;;;;;;;;;;;;20.32;44.16;95278.94;10474959;28;2667;-46
2023/11/14 07:20:52;;;;;;;;;;;;;;;20.34;44.02;95282.06;10479770;28;2598;-48
2023/11/14 07:25:52;;;;;;;;;;;;;;;20.37;43.60;95288.63;10475160;28;2670;-48
2023/11/14 07:30:53;;;;;;;;;;;;;;;20.36;43.88;95285.19;10480713;28;2627;-47
2023/11/14 07:35:53;;;;;;;;;;;;;;;20.41;43.62;95303.56;10474435;28;2596;-50
2023/11/14 07:40:53;;;;;;;;;;;;;;;20.41;43.75;95318.56;10484936;28;4610;-49
2023/11/14 07:45:53;;;;;;;;;;;;;;;20.42;44.04;95339.38;10482126;28;2548;-50
2023/11/14 07:50:54;;;;;;;;;;;;;;;20.47;43.29;95341.13;10480500;28;2710;-47
2023/11/14 07:55:55;;;;;;;;;;;;;;;20.50;43.48;95343.22;10480381;28;2612;-49
2023/11/14 08:00:58;;;;;;;;;;;;;;;20.49;43.51;95342.44;10479237;28;2658;-49
2023/11/14 08:05:58;;;;;;;;;;;;;;;20.51;43.18;95342.94;10477888;28;2548;-47
2023/11/14 08:10:58;;;;;;;;;;;;;;;20.52;43.06;95351.63;10475495;28;2632;-46
2023/11/14 08:15:59;;;;;;;;;;;;;;;20.51;42.75;95366.63;10476707;28;2641;-52
2023/11/14 08:20:59;;;;;;;;;;;;;;;20.48;42.92;95364.56;10473118;28;2658;-48
2023/11/14 08:25:59;;;;;;;;;;;;;;;20.47;43.22;95349.81;10458662;28;2647;-48
2023/11/14 08:30:59;;;;;;;;;;;;;;;20.43;43.60;95317.22;10470934;28;2683;-47
2023/11/14 08:36:00;;;;;;;;;;;;;;;20.41;43.53;95316.72;10473278;28;2607;-48
2023/11/14 08:41:01;;;;;;;;;;;;;;;20.41;43.86;95324.63;10470372;28;4638;-51
2023/11/14 08:46:02;;;;;;;;;;;;;;;20.42;44.29;95331.47;10478469;28;2624;-49
2023/11/14 08:51:02;;;;;;;;;;;;;;;20.43;43.94;95359.34;10473071;28;2601;-50
2023/11/14 08:56:03;;;;;;;;;;;;;;;20.46;44.61;95366.69;10466450;28;2596;-51
2023/11/14 09:01:04;;;;;;;;;;;;;;;20.46;45.03;95350.91;10493501;28;2636;-46
2023/11/14 09:06:04;;;;;;;;;;;;;;;20.45;45.11;95338.00;10474860;28;2674;-49
2023/11/14 09:11:04;;;;;;;;;;;;;;;20.42;44.88;95339.38;10471742;28;2588;-49
2023/11/14 09:16:09;;;;;;;;;;;;;;;20.39;44.61;95333.88;10474755;28;2638;-48
2023/11/14 09:21:09;;;;;;;;;;;;;;;20.41;45.01;95344.91;10470621;28;2644;-47
2023/11/14 09:26:10;;;;;;;;;;;;;;;20.41;45.06;95356.22;10467272;28;3000;-49
2023/11/14 09:31:10;;;;;;;;;;;;;;;20.39;44.85;95350.44;10470042;28;2652;-48
2023/11/14 09:36:12;;;;;;;;;;;;;;;20.39;44.36;95345.19;10466809;28;2688;-45
2023/11/14 09:41:13;;;;;;;;;;;;;;;20.37;44.72;95349.94;10468259;28;4784;-48
2023/11/14 09:46:13;;;;;;;;;;;;;;;20.36;44.72;95361.53;10440624;28;2560;-49
2023/11/14 09:51:14;;;;;;;;;;;;;;;20.34;44.75;95332.06;10470120;28;2591;-51
2023/11/14 09:56:15;;;;;;;;;;;;;;;20.32;44.52;95296.59;10462717;28;2528;-48
2023/11/14 10:01:15;;;;;;;;;;;;;;;20.28;45.15;95357.69;10480152;28;2577;-46
2023/11/14 10:06:15;;;;;;;;;;;;;;;20.26;45.63;95366.91;10483813;28;2557;-47
2023/11/14 10:11:16;;;;;;;;;;;;;;;20.25;45.16;95374.03;10475227;28;2590;-53
2023/11/14 10:16:18;;;;;;;;;;;;;;;20.25;45.27;95352.19;10462047;28;2602;-47
2023/11/14 10:21:25;;;;;;;;;;;;;;;20.21;45.05;95328.28;10476824;28;2826;-49
2023/11/14 10:26:25;;;;;;;;;;;;;;;20.18;45.53;95307.75;10462589;28;2595;-50
2023/11/14 10:31:35;;;;;;;;;;;;;;;20.15;45.70;95300.41;10474601;28;2598;-47
2023/11/14 10:36:45;;;;;;;;;;;;;;;20.14;46.08;95292.81;10462750;28;2584;-49
2023/11/14 10:41:46;;;;;;;;;;;;;;;20.10;45.74;95289.19;10481617;28;4799;-47
2023/11/14 10:46:47;;;;;;;;;;;;;;;20.08;45.99;95296.56;10475854;28;2648;-49
2023/11/14 10:51:48;;;;;;;;;;;;;;;20.08;45.06;95275.53;10477530;28;2683;-50
2023/11/14 10:56:49;;;;;;;;;;;;;;;20.07;45.68;95266.06;10474694;28;2533;-51
2023/11/14 11:01:49;;;;;;;;;;;;;;;20.03;45.79;95250.03;10474616;28;2553;-50
2023/11/14 11:06:49;;;;;;;;;;;;;;;20.04;45.68;95250.84;10475132;28;2589;-48
2023/11/14 11:11:50;;;;;;;;;;;;;;;20.02;45.28;95263.50;10475612;28;2585;-47
2023/11/14 11:16:51;;;;;;;;;;;;;;;20.01;45.21;95257.44;10453679;28;2645;-48
2023/11/14 11:22:03;;;;;;;;;;;;;;;20.00;45.51;95241.94;10477342;28;2601;-47
2023/11/14 11:27:17;;;;;;;;;;;;;;;20.01;45.71;95228.50;10471509;28;2630;-49
2023/11/14 11:32:21;;;;;;;;;;;;;;;19.98;45.77;95252.75;10473781;28;2656;-49
2023/11/14 11:37:40;;;;;;;;;;;;;;;19.95;45.91;95224.38;10468155;28;2560;-49
2023/11/14 11:42:42;;;;;;;;;;;;;;;19.96;45.43;95268.03;10471479;28;4708;-50
2023/11/14 11:47:42;;;;;;;;;;;;;;;19.93;45.75;95233.59;10460950;28;2661;-49
2023/11/14 11:52:42;;;;;;;;;;;;;;;19.94;45.66;95224.66;10466187;28;2662;-46
2023/11/14 11:57:43;;;;;;;;;;;;;;;19.90;44.97;95207.88;10470924;28;2668;-47
2023/11/14 12:02:43;;;;;;;;;;;;;;;19.89;45.29;95198.41;10471998;28;2691;-47
2023/11/14 12:07:44;;;;;;;;;;;;;;;19.86;45.55;95191.88;10439547;28;2729;-47
2023/11/14 12:12:44;;;;;;;;;;;;;;;19.85;45.14;95210.53;10477124;28;2557;-50
2023/11/14 12:17:46;;;;;;;;;;;;;;;19.83;45.39;95202.94;10453375;28;2636;-52
2023/11/14 12:22:49;;;;;;;;;;;;;;;19.83;45.47;95194.28;10476907;28;2698;-44
2023/11/14 12:27:59;;;;;;;;;;;;;;;19.82;45.38;95163.78;10477070;28;2664;-51
2023/11/14 12:33:03;;;;;;;;;;;;;;;19.79;45.28;95164.34;10473681;28;2598;-50
2023/11/14 12:38:03;;;;;;;;;;;;;;;19.78;45.18;95115.44;10477266;28;2611;-49
2023/11/14 12:43:04;;;;;;;;;;;;;;;19.77;44.76;95105.97;10471828;28;4629;-51
2023/11/14 12:48:05;;;;;;;;;;;;;;;19.74;45.19;95123.09;10476179;28;2605;-47
2023/11/14 12:53:08;;;;;;;;;;;;;;;19.72;45.25;95116.59;10454478;28;2612;-50
2023/11/14 12:58:08;;;;;;;;;;;;;;;19.71;44.88;95115.00;10468124;28;2624;-50
2023/11/14 13:03:09;;;;;;;;;;;;;;;19.71;44.64;95101.84;10467247;28;2686;-49
2023/11/14 13:08:09;;;;;;;;;;;;;;;19.68;44.37;95100.56;10464070;28;2619;-49
2023/11/14 13:13:11;;;;;;;;;;;;;;;19.67;44.59;95106.91;10466397;28;2690;-49
2023/11/14 13:18:11;;;;;;;;;;;;;;;19.67;44.11;95103.50;10451914;28;2623;-48
2023/11/14 13:23:11;;;;;;;;;;;;;;;19.63;44.12;95097.22;10467335;28;2667;-51
2023/11/14 13:28:12;;;;;;;;;;;;;;;19.62;43.92;95098.31;10462008;28;2739;-49
2023/11/14 13:33:12;;;;;;;;;;;;;;;19.60;43.78;95095.19;10470989;28;2621;-48
2023/11/14 13:38:13;;;;;;;;;;;;;;;19.56;43.99;95118.59;10478444;28;2632;-49
2023/11/14 13:43:13;;;;;;;;;;;;;;;19.57;44.07;95114.13;10459309;28;2589;-49
2023/11/14 13:48:13;;;;;;;;;;;;;;;19.54;43.71;95123.38;10482004;28;3134;-50
2023/11/14 13:53:13;;;;;;;;;;;;;;;19.53;43.74;95128.91;10476381;28;2669;-50
2023/11/14 13:58:14;;;;;;;;;;;;;;;19.52;43.91;95122.06;10460761;28;2649;-49
2023/11/14 14:03:16;;;;;;;;;;;;;;;19.50;43.89;95135.50;10473544;28;2654;-48
2023/11/14 14:08:17;;;;;;;;;;;;;;;19.49;43.73;95158.38;10478061;28;2715;-47
2023/11/14 14:13:20;;;;;;;;;;;;;;;19.48;43.73;95172.59;10473915;28;2609;-50
2023/11/14 14:18:21;;;;;;;;;;;;;;;19.45;43.41;95178.41;10475244;28;2581;-49
2023/11/14 14:23:23;;;;;;;;;;;;;;;19.44;43.88;95173.44;10440981;28;2562;-49
2023/11/14 14:28:28;;;;;;;;;;;;;;;19.42;43.92;95147.44;10464211;28;2684;-49
2023/11/14 14:33:29;;;;;;;;;;;;;;;19.40;43.72;95141.69;10474753;28;2676;-49
2023/11/14 14:38:29;;;;;;;;;;;;;;;19.42;43.84;95176.34;10468755;28;2641;-49
2023/11/14 14:43:31;;;;;;;;;;;;;;;19.45;43.97;95175.78;10469449;28;4590;-49
2023/11/14 14:48:33;;;;;;;;;;;;;;;19.51;44.39;95152.06;10475820;28;2574;-52
2023/11/14 14:53:34;;;;;;;;;;;;;;;19.57;44.10;95164.09;10476093;28;2606;-48
2023/11/14 14:58:34;;;;;;;;;;;;;;;19.62;44.13;95170.06;10470911;28;2709;-48
2023/11/14 15:03:35;;;;;;;;;;;;;;;19.66;43.99;95175.56;10466000;28;2586;-49
2023/11/14 15:08:36;;;;;;;;;;;;;;;19.70;43.97;95166.03;10476526;28;2585;-47
2023/11/14 15:13:36;;;;;;;;;;;;;;;19.74;43.91;95162.53;10469068;28;2632;-48
2023/11/14 15:18:36;;;;;;;;;;;;;;;19.79;43.81;95159.06;10473501;28;2659;-47
2023/11/14 15:23:37;;;;;;;;;;;;;;;19.83;43.77;95154.81;10469315;28;2675;-46
2023/11/14 15:28:38;;;;;;;;;;;;;;;19.87;43.73;95140.03;10468918;28;2684;-47
2023/11/14 15:33:38;;;;;;;;;;;;;;;19.91;43.85;95127.88;10471197;28;2767;-50
2023/11/14 15:38:39;;;;;;;;;;;;;;;19.93;43.54;95112.59;10468829;28;2557;-47
2023/11/14 15:43:40;;;;;;;;;;;;;;;19.99;43.36;95127.28;10468236;28;4692;-48
2023/11/14 15:48:42;;;;;;;;;;;;;;;20.02;43.28;95110.91;10491250;28;2629;-50
2023/11/14 15:53:42;;;;;;;;;;;;;;;20.04;43.19;95124.56;10470910;28;2668;-48
2023/11/14 15:58:42;;;;;;;;;;;;;;;20.08;43.18;95115.03;10473978;28;2675;-47
2023/11/14 16:03:42;;;;;;;;;;;;;;;20.07;42.67;95089.78;10456604;28;2626;-49
2023/11/14 16:08:43;;;;;;;;;;;;;;;20.08;43.21;95083.44;10467753;28;2687;-49
2023/11/14 16:13:43;;;;;;;;;;;;;;;20.08;43.20;95068.44;10471549;28;2568;-48
2023/11/14 16:18:43;;;;;;;;;;;;;;;20.15;42.75;95089.16;10467921;28;2624;-51
2023/11/14 16:23:44;;;;;;;;;;;;;;;20.13;43.00;95072.88;10471154;28;2663;-53
2023/11/14 16:28:44;;;;;;;;;;;;;;;20.18;42.96;95059.63;10465660;28;2577;-52
2023/11/14 16:33:44;;;;;;;;;;;;;;;20.20;42.94;95031.19;10468338;28;2674;-51
2023/11/14 16:38:44;;;;;;;;;;;;;;;20.21;42.99;95030.94;10471000;28;2553;-46
2023/11/14 16:43:47;;;;;;;;;;;;;;;20.22;43.13;95027.22;10475952;28;4605;-47
2023/11/14 16:48:47;;;;;;;;;;;;;;;20.23;43.07;95049.84;10454995;28;2611;-48
2023/11/14 16:53:48;;;;;;;;;;;;;;;20.27;42.98;95028.97;10469249;28;2627;-46
2023/11/14 16:58:48;;;;;;;;;;;;;;;20.30;42.76;94988.91;10466451;28;2621;-46
2023/11/14 17:03:49;;;;;;;;;;;;;;;20.31;42.41;94977.31;10463438;28;2687;-49
2023/11/14 17:08:49;;;;;;;;;;;;;;;20.31;42.27;94969.44;10469960;28;2637;-47
2023/11/14 17:13:50;;;;;;;;;;;;;;;20.34;42.44;94970.72;10464087;28;2762;-51
2023/11/14 17:18:50;;;;;;;;;;;;;;;20.34;42.38;94987.25;10476059;28;2723;-49
2023/11/14 17:23:51;;;;;;;;;;;;;;;20.38;42.21;94961.91;10465760;28;2697;-50
2023/11/14 17:28:51;;;;;;;;;;;;;;;20.41;42.04;94923.72;10467235;28;2575;-48
2023/11/14 17:33:51;;;;;;;;;;;;;;;20.40;42.27;94924.81;10467758;28;2604;-46
2023/11/14 17:38:52;;;;;;;;;;;;;;;20.42;42.04;94926.06;10471445;28;3063;-49
2023/11/14 17:43:54;;;;;;;;;;;;;;;20.43;42.28;94926.84;10450846;28;4745;-47
2023/11/14 17:48:58;;;;;;;;;;;;;;;20.44;42.10;94923.94;10467067;28;2619;-49
2023/11/14 17:53:59;;;;;;;;;;;;;;;20.44;42.19;94910.75;10447942;28;2600;-48
2023/11/14 17:59:00;;;;;;;;;;;;;;;20.43;42.28;94913.66;10468320;28;2722;-50
2023/11/14 18:04:00;;;;;;;;;;;;;;;20.42;42.47;94904.22;10452179;28;2689;-52
2023/11/14 18:09:00;;;;;;;;;;;;;;;20.42;41.86;94914.75;10455278;28;2681;-46
2023/11/14 18:14:03;;;;;;;;;;;;;;;20.43;42.21;94911.81;10470013;28;2595;-48
2023/11/14 18:19:03;;;;;;;;;;;;;;;20.45;42.29;94872.03;10471321;28;2609;-47
2023/11/14 18:24:04;;;;;;;;;;;;;;;20.43;42.23;94822.31;10477314;28;2616;-48
2023/11/14 18:29:04;;;;;;;;;;;;;;;20.46;42.12;94855.97;10473407;28;2678;-49
2023/11/14 18:34:04;;;;;;;;;;;;;;;20.54;42.25;94841.34;10477219;28;2556;-48
2023/11/14 18:39:05;;;;;;;;;;;;;;;20.74;42.19;94819.84;10480966;28;2695;-50
2023/11/14 18:44:05;;;;;;;;;;;;;;;20.93;41.50;94799.41;10477568;28;4680;-49
2023/11/14 18:49:05;;;;;;;;;;;;;;;21.10;41.58;94804.06;10474400;28;2637;-47
2023/11/14 18:54:06;;;;;;;;;;;;;;;21.30;40.93;94806.19;10478173;28;2563;-50
2023/11/14 18:59:06;;;;;;;;;;;;;;;21.38;41.07;94803.63;10472173;28;2615;-49
2023/11/14 19:04:06;;;;;;;;;;;;;;;21.54;40.38;94799.53;10470166;28;2619;-49
2023/11/14 19:09:07;;;;;;;;;;;;;;;21.61;40.14;94791.19;10469333;28;2673;-49
2023/11/14 19:14:11;;;;;;;;;;;;;;;21.67;40.18;94784.72;10475364;28;2739;-47
2023/11/14 19:19:11;;;;;;;;;;;;;;;21.75;39.95;94783.97;10474478;28;2616;-50
2023/11/14 19:24:12;;;;;;;;;;;;;;;21.77;39.50;94773.88;10475595;28;2597;-48
2023/11/14 19:29:13;;;;;;;;;;;;;;;21.79;39.81;94790.19;10472371;28;2612;-48
2023/11/14 19:34:15;;;;;;;;;;;;;;;21.81;39.74;94796.75;10451498;28;2602;-51
2023/11/14 19:39:16;;;;;;;;;;;;;;;21.87;39.21;94797.38;10477430;28;2569;-51
2023/11/14 19:44:16;;;;;;;;;;;;;;;21.81;39.70;94793.31;10470911;28;4708;-47
2023/11/14 19:49:17;;;;;;;;;;;;;;;21.86;39.99;94795.84;10479141;28;2101;-52
2023/11/14 19:54:17;;;;;;;;;;;;;;;21.95;39.52;94796.66;10481464;28;2021;-47
2023/11/14 19:59:17;;;;;;;;;;;;;;;21.94;39.31;94789.03;10482323;28;1561;-48
2023/11/14 20:04:18;;;;;;;;;;;;;;;21.96;39.31;94816.69;10477558;28;1974;-49
2023/11/14 20:09:18;;;;;;;;;;;;;;;21.98;39.28;94806.59;10477092;28;1719;-47
2023/11/14 20:14:20;;;;;;;;;;;;;;;22.00;39.31;94803.66;10472497;28;1906;-46
2023/11/14 20:19:20;;;;;;;;;;;;;;;22.01;39.46;94805.22;10474820;28;1457;-49
2023/11/14 20:24:20;;;;;;;;;;;;;;;22.07;39.16;94804.75;10481263;28;2517;-47
2023/11/14 20:29:21;;;;;;;;;;;;;;;22.09;39.04;94804.47;10477365;28;1567;-49
2023/11/14 20:34:22;;;;;;;;;;;;;;;22.18;38.74;94806.06;10480049;28;1923;-47
2023/11/14 20:39:22;;;;;;;;;;;;;;;22.15;38.77;94811.97;10479200;28;1464;-48
2023/11/14 20:44:22;;;;;;;;;;;;;;;22.15;38.41;94819.88;10476333;28;4567;-47
2023/11/14 20:49:23;;;;;;;;;;;;;;;22.12;38.50;94819.69;10471696;28;1488;-48
2023/11/14 20:54:23;;;;;;;;;;;;;;;22.10;38.48;94796.25;10480954;28;1900;-48
2023/11/14 20:59:24;;;;;;;;;;;;;;;22.10;39.09;94822.63;10475738;28;1491;-51
2023/11/14 21:04:24;;;;;;;;;;;;;;;22.07;39.09;94852.25;10459689;28;1608;-49
2023/11/14 21:09:25;;;;;;;;;;;;;;;21.96;39.54;94843.06;10478604;28;1924;-47
2023/11/14 21:14:26;;;;;;;;;;;;;;;21.90;39.65;94832.94;10481302;28;2088;-49
2023/11/14 21:19:26;;;;;;;;;;;;;;;21.85;39.62;94826.72;10470411;28;2304;-50
2023/11/14 21:24:30;;;;;;;;;;;;;;;21.83;39.43;94836.00;10477969;28;1693;-48
2023/11/14 21:29:31;;;;;;;;;;;;;;;21.81;39.52;94851.34;10481757;28;1525;-47
2023/11/14 21:34:33;;;;;;;;;;;;;;;21.79;39.59;94817.34;10464399;28;1910;-49
2023/11/14 21:39:34;;;;;;;;;;;;;;;21.85;39.79;94832.00;10479674;28;1507;-48
2023/11/14 21:44:34;;;;;;;;;;;;;;;21.84;39.69;94866.59;10482398;28;4693;-46
2023/11/14 21:49:37;;;;;;;;;;;;;;;21.81;39.87;94907.56;10476345;28;2628;-49
2023/11/14 21:54:37;;;;;;;;;;;;;;;21.62;40.03;94898.22;10478300;28;2677;-48
2023/11/14 21:59:37;;;;;;;;;;;;;;;21.50;40.24;94876.91;10479626;28;2602;-50
2023/11/14 22:04:37;;;;;;;;;;;;;;;21.41;40.86;94894.53;10476694;28;2737;-47
2023/11/14 22:09:38;;;;;;;;;;;;;;;21.30;41.13;94890.56;10480017;28;2615;-49
2023/11/14 22:14:38;;;;;;;;;;;;;;;21.25;41.91;94901.19;10479313;28;2576;-51
2023/11/14 22:19:39;;;;;;;;;;;;;;;21.17;42.06;94925.63;10478823;28;2634;-50
2023/11/14 22:24:39;;;;;;;;;;;;;;;21.12;41.66;94917.84;10480382;28;2582;-45
2023/11/14 22:29:39;;;;;;;;;;;;;;;21.04;42.01;94943.81;10484285;28;2529;-50
2023/11/14 22:34:40;;;;;;;;;;;;;;;20.98;42.08;94946.81;10473972;28;2640;-49
2023/11/14 22:39:42;;;;;;;;;;;;;;;20.93;42.19;94958.25;10480390;28;2607;-51
2023/11/14 22:44:42;;;;;;;;;;;;;;;20.85;42.27;94963.41;10484654;28;4676;-52
2023/11/14 22:49:43;;;;;;;;;;;;;;;20.80;42.34;94966.94;10489724;28;2651;-49
2023/11/14 22:54:43;;;;;;;;;;;;;;;20.74;42.91;94983.13;10478911;28;2532;-48
2023/11/14 22:59:43;;;;;;;;;;;;;;;20.70;42.58;94964.50;10471907;28;2614;-45
2023/11/14 23:04:44;;;;;;;;;;;;;;;20.66;42.48;94989.06;10481748;28;2640;-50
2023/11/14 23:09:44;;;;;;;;;;;;;;;20.62;42.90;94988.88;10478273;28;2591;-49
2023/11/14 23:14:47;;;;;;;;;;;;;;;20.60;43.04;94980.50;10471354;28;2630;-49
2023/11/14 23:19:47;;;;;;;;;;;;;;;20.55;42.70;94993.72;10461773;28;2552;-50
2023/11/14 23:24:48;;;;;;;;;;;;;;;20.50;42.74;94985.16;10474822;28;2530;-47
2023/11/14 23:29:49;;;;;;;;;;;;;;;20.52;42.62;94988.28;10479134;28;2564;-50
2023/11/14 23:34:49;;;;;;;;;;;;;;;20.50;42.48;94998.31;10480327;28;2589;-50
2023/11/14 23:39:51;;;;;;;;;;;;;;;20.45;42.57;94995.75;10476318;28;2669;-49
2023/11/14 23:44:51;;;;;;;;;;;;;;;20.37;42.63;94991.97;10463605;28;5321;-49
2023/11/14 23:49:52;;;;;;;;;;;;;;;20.36;42.57;95019.34;10474480;28;2775;-48
2023/11/14 23:54:53;;;;;;;;;;;;;;;20.31;42.68;95034.44;10477321;28;2553;-50
2023/11/14 23:59:53;;;;;;;;;;;;;;;20.29;42.61;95040.00;10469554;28;2660;-49
